createdAt,value
2018-02-13T00:01:57.485Z,100848.61
2018-02-13T00:05:03.046Z,100844.41
2018-02-13T00:08:08.580Z,100849.87
2018-02-13T00:11:14.192Z,100851.56
2018-02-13T00:14:19.700Z,100854.09
2018-02-13T00:17:25.265Z,100859.15
2018-02-13T00:20:30.798Z,100857.47
2018-02-13T00:23:36.364Z,100859.59
2018-02-13T00:26:41.889Z,100859.17
2018-02-13T00:29:47.452Z,100863.39
2018-02-13T00:32:52.991Z,100861.29
2018-02-13T00:35:58.541Z,100861.73
2018-02-13T00:39:03.865Z,100866.78
2018-02-13T00:42:09.440Z,100867.21
2018-02-13T00:45:14.974Z,100865.95
2018-02-13T00:48:20.557Z,100864.28
2018-02-13T00:51:26.078Z,100867.63
2018-02-13T00:54:31.651Z,100864.69
2018-02-13T00:57:37.197Z,100863.43
2018-02-13T01:00:46.652Z,100864.70
2018-02-13T01:03:52.198Z,100859.66
2018-02-13T01:06:57.772Z,100857.13
2018-02-13T01:10:03.286Z,100862.20
2018-02-13T01:13:08.832Z,100857.99
2018-02-13T01:16:14.359Z,100858.00
2018-02-13T01:19:19.935Z,100860.11
2018-02-13T01:22:25.464Z,100855.88
2018-02-13T01:25:31.026Z,100855.47
2018-02-13T01:28:36.539Z,100858.00
2018-02-13T01:31:42.105Z,100863.05
2018-02-13T01:34:47.613Z,100855.90
2018-02-13T01:37:53.174Z,100858.44
2018-02-13T01:40:58.701Z,100866.88
2018-02-13T01:44:04.272Z,100867.28
2018-02-13T01:47:09.782Z,100864.34
2018-02-13T01:50:26.817Z,100865.20
2018-02-13T01:54:01.431Z,100862.27
2018-02-13T01:57:23.554Z,100865.22
2018-02-13T02:00:38.248Z,100863.54
2018-02-13T02:03:47.164Z,100862.27
2018-02-13T02:06:54.466Z,100868.59
2018-02-13T02:10:12.632Z,100862.28
2018-02-13T02:13:34.778Z,100859.34
2018-02-13T02:16:45.163Z,100863.55
2018-02-13T02:19:52.676Z,100859.78
2018-02-13T02:23:00.937Z,100865.23
2018-02-13T02:26:08.736Z,100859.36
2018-02-13T02:29:15.936Z,100857.25
2018-02-13T02:32:23.245Z,100859.37
2018-02-13T02:35:30.681Z,100863.58
2018-02-13T02:38:37.363Z,100865.24
2018-02-13T02:41:44.315Z,100862.73
2018-02-13T02:44:50.254Z,100863.16
2018-02-13T02:47:55.819Z,100864.00
2018-02-13T02:51:01.345Z,100865.27
2018-02-13T02:54:06.909Z,100866.11
2018-02-13T02:57:12.468Z,100872.01
2018-02-13T03:00:18.053Z,100863.58
2018-02-13T03:03:23.632Z,100870.73
2018-02-13T03:06:29.199Z,100876.61
2018-02-13T03:09:34.418Z,100872.84
2018-02-13T03:12:39.985Z,100872.00
2018-02-13T03:15:45.516Z,100875.36
2018-02-13T03:18:51.086Z,100872.85
2018-02-13T03:21:56.604Z,100860.66
2018-02-13T03:25:02.153Z,100858.56
2018-02-13T03:28:07.754Z,100863.19
2018-02-13T03:31:13.346Z,100862.77
2018-02-13T03:34:18.858Z,100863.16
2018-02-13T03:37:25.376Z,100864.84
2018-02-13T03:40:30.881Z,100869.05
2018-02-13T03:43:36.456Z,100863.16
2018-02-13T03:46:41.862Z,100862.33
2018-02-13T03:49:47.417Z,100863.17
2018-02-13T03:52:52.937Z,100869.91
2018-02-13T03:55:58.497Z,100864.44
2018-02-13T03:59:04.149Z,100866.12
2018-02-13T04:02:09.668Z,100860.25
2018-02-13T04:05:15.241Z,100858.14
2018-02-13T04:08:20.816Z,100856.43
2018-02-13T04:11:26.352Z,100864.88
2018-02-13T04:14:31.919Z,100856.02
2018-02-13T04:17:37.451Z,100859.80
2018-02-13T04:20:46.691Z,100867.36
2018-02-13T04:23:52.213Z,100871.99
2018-02-13T04:26:57.765Z,100875.78
2018-02-13T04:30:03.185Z,100870.31
2018-02-13T04:33:08.752Z,100872.42
2018-02-13T04:36:14.329Z,100876.63
2018-02-13T04:39:19.853Z,100874.52
2018-02-13T04:42:25.403Z,100875.80
2018-02-13T04:45:30.939Z,100874.53
2018-02-13T04:48:36.503Z,100866.94
2018-02-13T04:51:42.015Z,100873.66
2018-02-13T04:54:49.652Z,100876.19
2018-02-13T04:57:55.186Z,100868.20
2018-02-13T05:01:00.752Z,100868.20
2018-02-13T05:04:11.528Z,100866.95
2018-02-13T05:07:17.099Z,100864.43
2018-02-13T05:10:22.628Z,100866.95
2018-02-13T05:13:28.201Z,100872.00
2018-02-13T05:16:33.706Z,100864.02
2018-02-13T05:19:39.300Z,100866.54
2018-02-13T05:22:46.221Z,100872.00
2018-02-13T05:25:53.056Z,100870.74
2018-02-13T05:28:58.657Z,100870.74
2018-02-13T05:32:04.220Z,100871.13
2018-02-13T05:35:24.160Z,100866.52
2018-02-13T05:39:06.632Z,100866.09
2018-02-13T05:42:21.084Z,100866.94
2018-02-13T05:45:40.297Z,100867.36
2018-02-13T05:48:46.001Z,100861.48
2018-02-13T05:51:51.575Z,100862.31
2018-02-13T05:54:58.085Z,100856.02
2018-02-13T05:58:03.669Z,100864.84
2018-02-13T06:01:09.193Z,100862.73
2018-02-13T06:04:17.184Z,100871.56
2018-02-13T06:07:30.023Z,100873.25
2018-02-13T06:10:35.585Z,100876.60
2018-02-13T06:13:41.154Z,100874.08
2018-02-13T06:16:46.689Z,100878.70
2018-02-13T06:19:52.285Z,100881.23
2018-02-13T06:22:57.815Z,100880.80
2018-02-13T06:26:03.383Z,100881.65
2018-02-13T06:29:08.892Z,100880.39
2018-02-13T06:32:14.444Z,100885.01
2018-02-13T06:35:19.970Z,100886.69
2018-02-13T06:38:25.536Z,100884.17
2018-02-13T06:41:31.078Z,100884.59
2018-02-13T06:44:36.676Z,100887.95
2018-02-13T06:47:43.316Z,100884.17
2018-02-13T06:50:48.890Z,100887.95
2018-02-13T06:53:54.199Z,100897.62
2018-02-13T06:56:59.885Z,100891.31
2018-02-13T07:00:04.952Z,100896.36
2018-02-13T07:03:10.526Z,100900.14
2018-02-13T07:06:16.075Z,100910.64
2018-02-13T07:09:21.651Z,100908.12
2018-02-13T07:12:27.177Z,100908.96
2018-02-13T07:15:32.762Z,100911.91
2018-02-13T07:18:38.329Z,100914.42
2018-02-13T07:21:43.877Z,100913.58
2018-02-13T07:24:49.455Z,100914.42
2018-02-13T07:27:54.977Z,100913.58
2018-02-13T07:31:00.533Z,100921.98
2018-02-13T07:34:06.108Z,100922.41
2018-02-13T07:37:11.703Z,100923.66
2018-02-13T07:40:17.286Z,100923.25
2018-02-13T07:43:22.848Z,100926.19
2018-02-13T07:46:28.389Z,100933.78
2018-02-13T07:49:33.978Z,100932.48
2018-02-13T07:52:39.509Z,100935.46
2018-02-13T07:55:45.061Z,100927.47
2018-02-13T07:58:50.629Z,100927.05
2018-02-13T08:01:56.204Z,100930.84
2018-02-13T08:05:01.745Z,100937.98
2018-02-13T08:08:07.321Z,100938.81
2018-02-13T08:11:12.894Z,100939.23
2018-02-13T08:14:18.454Z,100932.94
2018-02-13T08:17:24.014Z,100934.19
2018-02-13T08:20:29.634Z,100928.75
2018-02-13T08:23:35.410Z,100928.75
2018-02-13T08:26:40.929Z,100930.44
2018-02-13T08:29:46.504Z,100921.18
2018-02-13T08:32:52.090Z,100927.06
2018-02-13T08:35:57.613Z,100925.37
2018-02-13T08:39:03.234Z,100924.96
2018-02-13T08:42:08.749Z,100926.24
2018-02-13T08:45:14.364Z,100925.81
2018-02-13T08:48:19.937Z,100921.19
2018-02-13T08:51:25.504Z,100922.86
2018-02-13T08:54:31.112Z,100924.98
2018-02-13T08:57:40.853Z,100927.06
2018-02-13T09:00:46.471Z,100925.81
2018-02-13T09:03:52.028Z,100923.70
2018-02-13T09:06:57.610Z,100929.63
2018-02-13T09:10:03.188Z,100927.92
2018-02-13T09:13:08.837Z,100928.78
2018-02-13T09:16:14.384Z,100923.30
2018-02-13T09:19:19.972Z,100922.89
2018-02-13T09:22:25.558Z,100926.66
2018-02-13T09:25:31.113Z,100925.39
2018-02-13T09:28:36.713Z,100921.61
2018-02-13T09:31:42.245Z,100924.56
2018-02-13T09:34:47.836Z,100924.56
2018-02-13T09:37:53.392Z,100928.33
2018-02-13T09:40:58.961Z,100924.97
2018-02-13T09:44:04.323Z,100926.22
2018-02-13T09:47:09.864Z,100925.37
2018-02-13T09:50:15.473Z,100933.37
2018-02-13T09:53:20.996Z,100929.59
2018-02-13T09:56:26.574Z,100920.34
2018-02-13T09:59:32.084Z,100924.97
2018-02-13T10:02:37.676Z,100929.19
2018-02-13T10:05:43.225Z,100930.85
2018-02-13T10:08:48.793Z,100925.81
2018-02-13T10:11:54.320Z,100926.66
2018-02-13T10:14:59.636Z,100922.84
2018-02-13T10:18:05.201Z,100924.94
2018-02-13T10:21:10.597Z,100924.13
2018-02-13T10:24:16.190Z,100922.41
2018-02-13T10:27:21.742Z,100917.36
2018-02-13T10:30:27.303Z,100920.31
2018-02-13T10:33:32.873Z,100918.62
2018-02-13T10:36:38.521Z,100912.73
2018-02-13T10:39:44.058Z,100914.83
2018-02-13T10:42:49.628Z,100916.09
2018-02-13T10:45:55.189Z,100913.10
2018-02-13T10:49:00.794Z,100923.20
2018-02-13T10:52:06.347Z,100915.23
2018-02-13T10:55:11.937Z,100910.16
2018-02-13T10:58:17.510Z,100916.88
2018-02-13T11:01:28.528Z,100916.02
2018-02-13T11:04:34.044Z,100916.88
2018-02-13T11:07:41.877Z,100914.75
2018-02-13T11:10:47.443Z,100908.84
2018-02-13T11:13:52.831Z,100906.30
2018-02-13T11:16:58.280Z,100904.20
2018-02-13T11:20:03.896Z,100910.51
2018-02-13T11:23:09.453Z,100907.55
2018-02-13T11:26:15.645Z,100902.06
2018-02-13T11:29:24.213Z,100899.09
2018-02-13T11:32:29.750Z,100900.80
2018-02-13T11:35:35.340Z,100902.45
2018-02-13T11:38:40.852Z,100899.50
2018-02-13T11:41:46.401Z,100901.58
2018-02-13T11:44:51.942Z,100897.77
2018-02-13T11:47:57.509Z,100899.89
2018-02-13T11:51:03.084Z,100890.61
2018-02-13T11:54:08.632Z,100894.80
2018-02-13T11:57:14.199Z,100889.71
2018-02-13T12:00:19.752Z,100892.68
2018-02-13T12:03:25.331Z,100891.81
2018-02-13T12:06:30.844Z,100893.89
2018-02-13T12:09:36.392Z,100887.56
2018-02-13T12:12:41.965Z,100882.09
2018-02-13T12:15:47.556Z,100880.38
2018-02-13T12:18:53.075Z,100876.98
2018-02-13T12:21:58.634Z,100881.17
2018-02-13T12:25:04.171Z,100879.89
2018-02-13T12:28:09.570Z,100879.05
2018-02-13T12:31:14.793Z,100878.19
2018-02-13T12:34:20.350Z,100876.47
2018-02-13T12:37:25.873Z,100873.08
2018-02-13T12:40:31.468Z,100873.92
2018-02-13T12:43:37.046Z,100870.09
2018-02-13T12:46:42.597Z,100865.05
2018-02-13T12:49:48.181Z,100866.69
2018-02-13T12:52:53.772Z,100857.83
2018-02-13T12:55:59.317Z,100856.98
2018-02-13T12:59:04.896Z,100856.11
2018-02-13T13:02:10.472Z,100858.22
2018-02-13T13:05:16.079Z,100861.53
2018-02-13T13:08:21.666Z,100860.67
2018-02-13T13:11:27.245Z,100857.73
2018-02-13T13:14:32.848Z,100856.02
2018-02-13T13:17:45.453Z,100860.22
2018-02-13T13:20:50.983Z,100854.73
2018-02-13T13:23:56.613Z,100857.25
2018-02-13T13:27:02.164Z,100852.14
2018-02-13T13:30:07.769Z,100850.03
2018-02-13T13:33:13.342Z,100848.76
2018-02-13T13:36:18.857Z,100841.16
2018-02-13T13:39:24.432Z,100842.41
2018-02-13T13:42:29.973Z,100841.98
2018-02-13T13:45:35.593Z,100839.84
2018-02-13T13:48:41.135Z,100837.28
2018-02-13T13:51:46.700Z,100836.86
2018-02-13T13:54:52.213Z,100834.34
2018-02-13T13:57:57.876Z,100831.34
2018-02-13T14:01:03.410Z,100825.45
2018-02-13T14:04:08.994Z,100822.46
2018-02-13T14:07:14.526Z,100825.00
2018-02-13T14:10:19.889Z,100822.85
2018-02-13T14:13:25.442Z,100827.91
2018-02-13T14:16:30.867Z,100825.36
2018-02-13T14:19:36.463Z,100829.58
2018-02-13T14:22:42.021Z,100826.64
2018-02-13T14:25:47.541Z,100822.84
2018-02-13T14:28:53.113Z,100827.47
2018-02-13T14:31:58.378Z,100826.61
2018-02-13T14:35:03.929Z,100824.50
2018-02-13T14:38:09.444Z,100830.81
2018-02-13T14:41:15.023Z,100828.69
2018-02-13T14:44:20.558Z,100825.73
2018-02-13T14:47:26.177Z,100831.22
2018-02-13T14:50:32.017Z,100829.94
2018-02-13T14:53:37.584Z,100831.62
2018-02-13T14:56:43.154Z,100827.83
2018-02-13T14:59:48.937Z,100832.89
2018-02-13T15:02:54.518Z,100834.17
2018-02-13T15:06:00.067Z,100840.48
2018-02-13T15:09:05.167Z,100841.31
2018-02-13T15:12:10.603Z,100846.81
2018-02-13T15:15:16.930Z,100850.59
2018-02-13T15:18:27.909Z,100854.41
2018-02-13T15:21:33.432Z,100855.69
2018-02-13T15:24:38.983Z,100854.00
2018-02-13T15:27:44.515Z,100860.33
2018-02-13T15:30:49.935Z,100861.17
2018-02-13T15:33:55.503Z,100868.78
2018-02-13T15:37:01.065Z,100864.16
2018-02-13T15:40:06.574Z,100859.09
2018-02-13T15:43:12.132Z,100870.08
2018-02-13T15:46:17.524Z,100874.72
2018-02-13T15:49:23.030Z,100873.47
2018-02-13T15:52:28.580Z,100874.30
2018-02-13T15:55:34.083Z,100877.69
2018-02-13T15:58:39.667Z,100881.09
2018-02-13T16:01:45.434Z,100877.73
2018-02-13T16:04:50.943Z,100878.17
2018-02-13T16:07:56.485Z,100887.91
2018-02-13T16:11:01.996Z,100884.95
2018-02-13T16:14:07.540Z,100885.38
2018-02-13T16:17:13.079Z,100886.66
2018-02-13T16:20:18.616Z,100891.73
2018-02-13T16:23:23.979Z,100894.70
2018-02-13T16:26:29.539Z,100895.17
2018-02-13T16:29:35.100Z,100894.75
2018-02-13T16:32:40.605Z,100899.44
2018-02-13T16:35:46.156Z,100902.82
2018-02-13T16:38:51.905Z,100909.20
2018-02-13T16:41:57.447Z,100910.91
2018-02-13T16:45:03.001Z,100906.33
2018-02-13T16:48:08.504Z,100909.70
2018-02-13T16:51:14.049Z,100912.29
2018-02-13T16:54:19.568Z,100910.19
2018-02-13T16:57:25.154Z,100911.50
2018-02-13T17:00:30.649Z,100913.62
2018-02-13T17:03:36.201Z,100909.87
2018-02-13T17:06:41.714Z,100913.27
2018-02-13T17:09:47.276Z,100915.40
2018-02-13T17:12:52.793Z,100914.16
2018-02-13T17:15:58.628Z,100916.70
2018-02-13T17:19:05.183Z,100918.38
2018-02-13T17:22:10.691Z,100921.78
2018-02-13T17:25:16.236Z,100923.50
2018-02-13T17:28:21.802Z,100924.33
2018-02-13T17:31:27.461Z,100924.77
2018-02-13T17:34:33.284Z,100925.23
2018-02-13T17:37:42.138Z,100926.48
2018-02-13T17:40:48.217Z,100926.94
2018-02-13T17:43:59.556Z,100930.73
2018-02-13T17:47:07.710Z,100927.36
2018-02-13T17:50:22.331Z,100934.11
2018-02-13T17:53:52.008Z,100935.83
2018-02-13T17:57:14.287Z,100935.83
2018-02-13T18:00:34.963Z,100934.58
2018-02-13T18:03:51.302Z,100935.42
2018-02-13T18:07:16.232Z,100937.94
2018-02-13T18:10:37.790Z,100937.55
2018-02-13T18:13:56.409Z,100945.55
2018-02-13T18:17:13.981Z,100949.36
2018-02-13T18:20:39.252Z,100945.97
2018-02-13T18:27:10.473Z,100955.25
2018-02-13T18:30:32.975Z,100959.44
2018-02-13T18:33:53.112Z,100961.99
2018-02-13T18:37:10.466Z,100971.67
2018-02-13T18:40:40.116Z,100973.36
2018-02-13T18:44:03.255Z,100969.13
2018-02-13T18:47:23.029Z,100964.52
2018-02-13T18:50:47.988Z,100967.05
2018-02-13T18:54:13.562Z,100977.14
2018-02-13T18:57:35.623Z,100982.62
2018-02-13T19:00:53.959Z,100978.39
2018-02-13T19:11:10.381Z,100979.23
2018-02-13T19:14:35.555Z,100977.13
2018-02-13T19:17:58.915Z,100976.28
2018-02-13T19:21:18.952Z,100976.30
2018-02-13T19:24:28.807Z,100992.28
2018-02-13T19:27:48.597Z,100985.13
2018-02-13T19:31:05.571Z,100986.81
2018-02-13T19:34:15.174Z,100992.67
2018-02-13T19:37:25.340Z,100991.41
2018-02-13T19:40:38.852Z,100991.86
2018-02-13T19:43:48.744Z,100993.52
2018-02-13T19:46:57.756Z,100996.89
2018-02-13T19:50:12.604Z,100993.94
2018-02-13T19:53:28.397Z,100996.05
2018-02-13T19:56:49.636Z,101000.26
2018-02-13T20:00:01.789Z,100998.16
2018-02-13T20:03:08.628Z,101006.14
2018-02-13T20:06:18.056Z,101006.14
2018-02-13T20:09:26.868Z,101007.83
2018-02-13T20:12:35.613Z,101010.34
2018-02-13T20:15:48.771Z,101009.90
2018-02-13T20:19:06.969Z,101013.27
2018-02-13T20:22:16.833Z,101017.05
2018-02-13T20:25:26.056Z,101028.41
2018-02-13T20:28:36.015Z,101025.88
2018-02-13T20:31:45.692Z,101024.62
2018-02-13T20:34:56.816Z,101028.83
2018-02-13T20:38:06.135Z,101031.77
2018-02-13T20:41:20.841Z,101030.89
2018-02-13T20:44:34.993Z,101032.58
2018-02-13T20:47:45.438Z,101031.73
2018-02-13T20:50:59.817Z,101032.16
2018-02-13T20:54:10.104Z,101032.97
2018-02-13T20:57:27.788Z,101037.16
2018-02-13T21:00:37.042Z,101035.48
2018-02-13T21:03:44.245Z,101041.78
2018-02-13T21:06:49.830Z,101044.30
2018-02-13T21:09:55.377Z,101042.59
2018-02-13T21:13:00.954Z,101046.78
2018-02-13T21:16:06.475Z,101041.74
2018-02-13T21:19:12.027Z,101049.31
2018-02-13T21:22:17.589Z,101041.74
2018-02-13T21:25:23.407Z,101045.94
2018-02-13T21:28:28.980Z,101057.66
2018-02-13T21:31:34.266Z,101053.45
2018-02-13T21:34:39.814Z,101055.55
2018-02-13T21:37:45.402Z,101063.55
2018-02-13T21:40:50.465Z,101058.08
2018-02-13T21:43:56.068Z,101066.48
2018-02-13T21:47:01.598Z,101067.32
2018-02-13T21:50:07.169Z,101069.84
2018-02-13T21:53:12.190Z,101067.28
2018-02-13T21:56:17.735Z,101066.02
2018-02-13T21:59:23.292Z,101069.80
2018-02-13T22:02:28.589Z,101067.69
2018-02-13T22:05:34.154Z,101069.38
2018-02-13T22:08:39.698Z,101074.83
2018-02-13T22:11:45.251Z,101065.59
2018-02-13T22:14:50.810Z,101074.83
2018-02-13T22:17:56.378Z,101072.73
2018-02-13T22:21:01.901Z,101073.11
2018-02-13T22:24:07.450Z,101079.86
2018-02-13T22:27:13.012Z,101084.90
2018-02-13T22:30:18.570Z,101084.06
2018-02-13T22:33:24.132Z,101083.64
2018-02-13T22:36:29.724Z,101084.00
2018-02-13T22:39:35.283Z,101085.27
2018-02-13T22:42:40.851Z,101088.19
2018-02-13T22:45:46.397Z,101088.99
2018-02-13T22:48:51.949Z,101087.30
2018-02-13T22:51:57.637Z,101092.33
2018-02-13T22:55:03.192Z,101090.64
2018-02-13T22:58:08.718Z,101088.91
2018-02-13T23:01:14.274Z,101086.44
2018-02-13T23:04:19.546Z,101087.66
2018-02-13T23:07:25.126Z,101096.48
2018-02-13T23:10:30.628Z,101090.59
2018-02-13T23:13:36.219Z,101089.75
2018-02-13T23:16:41.731Z,101098.14
2018-02-13T23:19:47.301Z,101094.34
2018-02-13T23:22:52.836Z,101091.77
2018-02-13T23:25:58.419Z,101097.70
2018-02-13T23:29:07.410Z,101099.77
2018-02-13T23:32:13.942Z,101100.64
2018-02-13T23:35:19.258Z,101099.34
2018-02-13T23:38:24.770Z,101108.98
2018-02-13T23:41:30.331Z,101110.64
2018-02-13T23:44:35.889Z,101110.23
2018-02-13T23:47:45.570Z,101115.27
2018-02-13T23:50:51.126Z,101117.34
2018-02-13T23:53:56.710Z,101116.03
2018-02-13T23:57:02.210Z,101121.47
